sensor_id;sensor_type;location;lat;lon;timestamp;P1;durP1;ratioP1;P2;durP2;ratioP2
25359;SDS011;13311;51.386;0.016;2022-12-10T00:00:53;30.42;;;13.55;;
25359;SDS011;13311;51.386;0.016;2022-12-10T00:05:54;29.33;;;14.63;;
25359;SDS011;13311;51.386;0.016;2022-12-10T00:10:55;26.88;;;13.77;;
25359;SDS011;13311;51.386;0.016;2022-12-10T00:15:58;31.20;;;14.13;;
25359;SDS011;13311;51.386;0.016;2022-12-10T00:21:07;33.33;;;13.95;;
25359;SDS011;13311;51.386;0.016;2022-12-10T00:26:13;23.20;;;12.55;;
25359;SDS011;13311;51.386;0.016;2022-12-10T00:31:20;27.03;;;11.23;;
25359;SDS011;13311;51.386;0.016;2022-12-10T00:36:25;21.80;;;11.48;;
25359;SDS011;13311;51.386;0.016;2022-12-10T00:41:29;24.20;;;12.20;;
25359;SDS011;13311;51.386;0.016;2022-12-10T00:46:31;23.25;;;11.65;;
25359;SDS011;13311;51.386;0.016;2022-12-10T00:51:32;25.40;;;12.50;;
25359;SDS011;13311;51.386;0.016;2022-12-10T00:56:33;25.95;;;12.68;;
25359;SDS011;13311;51.386;0.016;2022-12-10T01:01:35;18.33;;;11.75;;
25359;SDS011;13311;51.386;0.016;2022-12-10T01:06:46;21.60;;;11.95;;
25359;SDS011;13311;51.386;0.016;2022-12-10T01:11:55;26.10;;;11.50;;
25359;SDS011;13311;51.386;0.016;2022-12-10T01:17:03;19.65;;;11.00;;
25359;SDS011;13311;51.386;0.016;2022-12-10T01:22:05;18.70;;;11.13;;
25359;SDS011;13311;51.386;0.016;2022-12-10T01:27:06;18.38;;;10.55;;
25359;SDS011;13311;51.386;0.016;2022-12-10T01:32:07;19.42;;;11.05;;
25359;SDS011;13311;51.386;0.016;2022-12-10T01:37:08;21.60;;;11.68;;
25359;SDS011;13311;51.386;0.016;2022-12-10T01:42:14;22.15;;;11.45;;
25359;SDS011;13311;51.386;0.016;2022-12-10T01:47:14;21.45;;;10.55;;
25359;SDS011;13311;51.386;0.016;2022-12-10T01:52:16;22.98;;;10.73;;
25359;SDS011;13311;51.386;0.016;2022-12-10T01:57:19;25.42;;;11.52;;
25359;SDS011;13311;51.386;0.016;2022-12-10T02:13:24;33.00;;;11.68;;
25359;SDS011;13311;51.386;0.016;2022-12-10T02:24:33;24.25;;;12.02;;
25359;SDS011;13311;51.386;0.016;2022-12-10T02:29:37;21.48;;;11.45;;
25359;SDS011;13311;51.386;0.016;2022-12-10T02:34:40;23.92;;;11.73;;
25359;SDS011;13311;51.386;0.016;2022-12-10T02:39:45;23.95;;;12.65;;
25359;SDS011;13311;51.386;0.016;2022-12-10T02:44:51;28.40;;;12.63;;
25359;SDS011;13311;51.386;0.016;2022-12-10T02:49:54;20.63;;;11.75;;
25359;SDS011;13311;51.386;0.016;2022-12-10T03:00:50;21.25;;;12.45;;
25359;SDS011;13311;51.386;0.016;2022-12-10T03:06:08;26.25;;;11.88;;
25359;SDS011;13311;51.386;0.016;2022-12-10T03:11:22;24.67;;;12.77;;
25359;SDS011;13311;51.386;0.016;2022-12-10T03:16:23;27.10;;;12.65;;
25359;SDS011;13311;51.386;0.016;2022-12-10T03:21:28;23.95;;;11.80;;
25359;SDS011;13311;51.386;0.016;2022-12-10T03:26:33;27.13;;;12.43;;
25359;SDS011;13311;51.386;0.016;2022-12-10T03:31:34;27.05;;;12.60;;
25359;SDS011;13311;51.386;0.016;2022-12-10T03:36:39;23.58;;;11.80;;
25359;SDS011;13311;51.386;0.016;2022-12-10T03:41:41;25.27;;;13.05;;
25359;SDS011;13311;51.386;0.016;2022-12-10T03:46:41;23.70;;;11.52;;
25359;SDS011;13311;51.386;0.016;2022-12-10T03:51:42;25.85;;;12.05;;
25359;SDS011;13311;51.386;0.016;2022-12-10T03:56:43;24.35;;;11.85;;
25359;SDS011;13311;51.386;0.016;2022-12-10T04:01:43;24.38;;;11.50;;
25359;SDS011;13311;51.386;0.016;2022-12-10T04:06:44;24.77;;;11.68;;
25359;SDS011;13311;51.386;0.016;2022-12-10T04:11:45;24.45;;;11.48;;
25359;SDS011;13311;51.386;0.016;2022-12-10T04:16:46;25.23;;;12.38;;
25359;SDS011;13311;51.386;0.016;2022-12-10T04:21:46;22.90;;;11.30;;
25359;SDS011;13311;51.386;0.016;2022-12-10T04:27:08;24.52;;;11.60;;
25359;SDS011;13311;51.386;0.016;2022-12-10T04:32:12;23.02;;;10.63;;
25359;SDS011;13311;51.386;0.016;2022-12-10T04:37:14;21.02;;;11.60;;
25359;SDS011;13311;51.386;0.016;2022-12-10T04:42:16;21.02;;;11.05;;
25359;SDS011;13311;51.386;0.016;2022-12-10T04:47:17;26.67;;;12.00;;
25359;SDS011;13311;51.386;0.016;2022-12-10T04:52:18;24.13;;;11.80;;
25359;SDS011;13311;51.386;0.016;2022-12-10T04:57:19;23.55;;;11.98;;
25359;SDS011;13311;51.386;0.016;2022-12-10T05:02:19;23.38;;;12.05;;
25359;SDS011;13311;51.386;0.016;2022-12-10T05:07:20;30.23;;;12.32;;
25359;SDS011;13311;51.386;0.016;2022-12-10T05:12:21;20.90;;;11.32;;
25359;SDS011;13311;51.386;0.016;2022-12-10T05:17:21;23.15;;;11.40;;
25359;SDS011;13311;51.386;0.016;2022-12-10T05:22:22;23.40;;;11.13;;
25359;SDS011;13311;51.386;0.016;2022-12-10T05:27:41;22.70;;;10.20;;
25359;SDS011;13311;51.386;0.016;2022-12-10T05:32:42;17.80;;;9.85;;
25359;SDS011;13311;51.386;0.016;2022-12-10T05:37:43;18.92;;;10.15;;
25359;SDS011;13311;51.386;0.016;2022-12-10T05:42:44;17.13;;;9.93;;
25359;SDS011;13311;51.386;0.016;2022-12-10T05:47:44;16.60;;;9.32;;
25359;SDS011;13311;51.386;0.016;2022-12-10T05:52:45;20.25;;;10.38;;
25359;SDS011;13311;51.386;0.016;2022-12-10T05:57:46;18.88;;;10.35;;
25359;SDS011;13311;51.386;0.016;2022-12-10T06:02:46;23.02;;;10.50;;
25359;SDS011;13311;51.386;0.016;2022-12-10T06:07:47;24.63;;;10.85;;
25359;SDS011;13311;51.386;0.016;2022-12-10T06:12:48;21.27;;;10.50;;
25359;SDS011;13311;51.386;0.016;2022-12-10T06:17:48;24.30;;;10.77;;
25359;SDS011;13311;51.386;0.016;2022-12-10T06:22:49;21.50;;;10.13;;
25359;SDS011;13311;51.386;0.016;2022-12-10T06:27:50;28.60;;;11.75;;
25359;SDS011;13311;51.386;0.016;2022-12-10T06:32:50;18.55;;;10.27;;
25359;SDS011;13311;51.386;0.016;2022-12-10T06:37:51;22.15;;;10.27;;
25359;SDS011;13311;51.386;0.016;2022-12-10T06:42:52;20.77;;;10.70;;
25359;SDS011;13311;51.386;0.016;2022-12-10T06:47:53;17.27;;;9.90;;
25359;SDS011;13311;51.386;0.016;2022-12-10T06:52:53;27.10;;;11.15;;
25359;SDS011;13311;51.386;0.016;2022-12-10T06:57:54;18.17;;;10.02;;
25359;SDS011;13311;51.386;0.016;2022-12-10T07:02:55;19.13;;;10.88;;
25359;SDS011;13311;51.386;0.016;2022-12-10T07:07:55;19.70;;;10.73;;
25359;SDS011;13311;51.386;0.016;2022-12-10T07:12:56;20.88;;;10.93;;
25359;SDS011;13311;51.386;0.016;2022-12-10T07:17:57;23.42;;;12.25;;
25359;SDS011;13311;51.386;0.016;2022-12-10T07:22:59;23.00;;;11.48;;
25359;SDS011;13311;51.386;0.016;2022-12-10T07:28:00;24.42;;;10.60;;
25359;SDS011;13311;51.386;0.016;2022-12-10T07:33:00;21.02;;;11.32;;
25359;SDS011;13311;51.386;0.016;2022-12-10T07:38:02;18.77;;;10.40;;
25359;SDS011;13311;51.386;0.016;2022-12-10T07:43:04;26.23;;;11.60;;
25359;SDS011;13311;51.386;0.016;2022-12-10T07:48:05;26.38;;;10.75;;
25359;SDS011;13311;51.386;0.016;2022-12-10T07:53:05;26.02;;;11.13;;
25359;SDS011;13311;51.386;0.016;2022-12-10T07:58:08;21.60;;;12.05;;
25359;SDS011;13311;51.386;0.016;2022-12-10T08:03:09;25.70;;;12.75;;
25359;SDS011;13311;51.386;0.016;2022-12-10T08:08:10;22.48;;;12.15;;
25359;SDS011;13311;51.386;0.016;2022-12-10T08:13:11;22.98;;;12.77;;
25359;SDS011;13311;51.386;0.016;2022-12-10T08:18:11;23.02;;;11.70;;
25359;SDS011;13311;51.386;0.016;2022-12-10T08:23:12;19.67;;;10.90;;
25359;SDS011;13311;51.386;0.016;2022-12-10T08:28:13;18.17;;;10.60;;
25359;SDS011;13311;51.386;0.016;2022-12-10T08:33:14;24.67;;;12.55;;
25359;SDS011;13311;51.386;0.016;2022-12-10T08:38:15;21.10;;;11.68;;
25359;SDS011;13311;51.386;0.016;2022-12-10T08:43:16;27.35;;;13.95;;
25359;SDS011;13311;51.386;0.016;2022-12-10T08:48:17;34.10;;;16.17;;
25359;SDS011;13311;51.386;0.016;2022-12-10T08:53:17;26.75;;;12.88;;
25359;SDS011;13311;51.386;0.016;2022-12-10T08:58:18;28.85;;;14.70;;
25359;SDS011;13311;51.386;0.016;2022-12-10T09:03:20;25.10;;;14.30;;
25359;SDS011;13311;51.386;0.016;2022-12-10T09:08:21;22.20;;;13.30;;
25359;SDS011;13311;51.386;0.016;2022-12-10T09:13:21;26.95;;;13.80;;
25359;SDS011;13311;51.386;0.016;2022-12-10T09:18:22;27.95;;;14.32;;
25359;SDS011;13311;51.386;0.016;2022-12-10T09:23:23;23.60;;;14.07;;
25359;SDS011;13311;51.386;0.016;2022-12-10T09:28:23;27.30;;;15.85;;
25359;SDS011;13311;51.386;0.016;2022-12-10T09:33:25;32.92;;;17.48;;
25359;SDS011;13311;51.386;0.016;2022-12-10T09:38:27;32.65;;;16.60;;
25359;SDS011;13311;51.386;0.016;2022-12-10T09:43:32;35.03;;;16.88;;
25359;SDS011;13311;51.386;0.016;2022-12-10T09:48:48;27.35;;;15.35;;
25359;SDS011;13311;51.386;0.016;2022-12-10T09:53:54;24.60;;;14.57;;
25359;SDS011;13311;51.386;0.016;2022-12-10T09:59:03;24.05;;;14.45;;
25359;SDS011;13311;51.386;0.016;2022-12-10T10:04:17;28.02;;;13.75;;
25359;SDS011;13311;51.386;0.016;2022-12-10T10:09:18;27.52;;;16.15;;
25359;SDS011;13311;51.386;0.016;2022-12-10T10:14:22;21.38;;;13.95;;
25359;SDS011;13311;51.386;0.016;2022-12-10T10:19:33;18.67;;;9.07;;
25359;SDS011;13311;51.386;0.016;2022-12-10T10:24:39;17.70;;;8.38;;
25359;SDS011;13311;51.386;0.016;2022-12-10T10:29:44;12.13;;;7.45;;
25359;SDS011;13311;51.386;0.016;2022-12-10T10:34:59;11.57;;;7.50;;
25359;SDS011;13311;51.386;0.016;2022-12-10T10:40:00;15.00;;;7.90;;
25359;SDS011;13311;51.386;0.016;2022-12-10T10:45:03;9.80;;;6.07;;
25359;SDS011;13311;51.386;0.016;2022-12-10T10:50:28;8.13;;;6.30;;
25359;SDS011;13311;51.386;0.016;2022-12-10T10:55:32;10.98;;;6.32;;
25359;SDS011;13311;51.386;0.016;2022-12-10T11:00:35;13.30;;;6.70;;
25359;SDS011;13311;51.386;0.016;2022-12-10T11:05:36;14.52;;;7.18;;
25359;SDS011;13311;51.386;0.016;2022-12-10T11:10:36;12.23;;;5.60;;
25359;SDS011;13311;51.386;0.016;2022-12-10T11:15:56;9.60;;;5.30;;
25359;SDS011;13311;51.386;0.016;2022-12-10T11:21:16;8.85;;;4.75;;
25359;SDS011;13311;51.386;0.016;2022-12-10T11:26:27;8.93;;;4.65;;
25359;SDS011;13311;51.386;0.016;2022-12-10T11:37:03;9.55;;;4.70;;
25359;SDS011;13311;51.386;0.016;2022-12-10T12:19:22;8.05;;;4.50;;
25359;SDS011;13311;51.386;0.016;2022-12-10T12:24:40;4.80;;;3.30;;
25359;SDS011;13311;51.386;0.016;2022-12-10T12:29:46;5.30;;;3.67;;
25359;SDS011;13311;51.386;0.016;2022-12-10T12:35:12;5.55;;;3.00;;
25359;SDS011;13311;51.386;0.016;2022-12-10T12:40:23;7.25;;;3.40;;
25359;SDS011;13311;51.386;0.016;2022-12-10T12:45:40;3.83;;;2.70;;
25359;SDS011;13311;51.386;0.016;2022-12-10T12:50:48;4.00;;;2.60;;
25359;SDS011;13311;51.386;0.016;2022-12-10T13:01:31;6.88;;;3.65;;
25359;SDS011;13311;51.386;0.016;2022-12-10T13:06:34;4.27;;;2.50;;
25359;SDS011;13311;51.386;0.016;2022-12-10T13:11:37;6.97;;;3.50;;
25359;SDS011;13311;51.386;0.016;2022-12-10T13:17:28;4.53;;;2.60;;
25359;SDS011;13311;51.386;0.016;2022-12-10T13:27:39;4.97;;;2.55;;
25359;SDS011;13311;51.386;0.016;2022-12-10T13:32:42;5.07;;;2.33;;
25359;SDS011;13311;51.386;0.016;2022-12-10T13:48:44;5.38;;;3.05;;
25359;SDS011;13311;51.386;0.016;2022-12-10T13:53:58;4.88;;;3.50;;
25359;SDS011;13311;51.386;0.016;2022-12-10T14:05:00;11.32;;;4.75;;
25359;SDS011;13311;51.386;0.016;2022-12-10T14:10:10;5.85;;;3.60;;
25359;SDS011;13311;51.386;0.016;2022-12-10T14:15:18;6.60;;;3.50;;
25359;SDS011;13311;51.386;0.016;2022-12-10T14:20:25;8.63;;;3.25;;
25359;SDS011;13311;51.386;0.016;2022-12-10T14:25:26;4.47;;;2.58;;
25359;SDS011;13311;51.386;0.016;2022-12-10T14:30:27;3.67;;;2.65;;
25359;SDS011;13311;51.386;0.016;2022-12-10T14:35:28;6.03;;;3.17;;
25359;SDS011;13311;51.386;0.016;2022-12-10T14:40:30;3.85;;;2.50;;
25359;SDS011;13311;51.386;0.016;2022-12-10T14:45:51;4.13;;;2.47;;
25359;SDS011;13311;51.386;0.016;2022-12-10T14:51:02;4.70;;;2.38;;
25359;SDS011;13311;51.386;0.016;2022-12-10T14:56:04;4.17;;;1.97;;
25359;SDS011;13311;51.386;0.016;2022-12-10T15:01:13;6.25;;;2.53;;
25359;SDS011;13311;51.386;0.016;2022-12-10T15:06:27;6.28;;;2.67;;
25359;SDS011;13311;51.386;0.016;2022-12-10T15:11:28;4.68;;;2.60;;
25359;SDS011;13311;51.386;0.016;2022-12-10T15:16:30;8.98;;;3.70;;
25359;SDS011;13311;51.386;0.016;2022-12-10T15:21:44;7.90;;;4.10;;
25359;SDS011;13311;51.386;0.016;2022-12-10T15:26:50;6.78;;;4.47;;
25359;SDS011;13311;51.386;0.016;2022-12-10T15:31:59;8.88;;;4.88;;
25359;SDS011;13311;51.386;0.016;2022-12-10T15:37:05;12.88;;;5.75;;
25359;SDS011;13311;51.386;0.016;2022-12-10T15:47:44;10.57;;;4.80;;
25359;SDS011;13311;51.386;0.016;2022-12-10T15:52:45;8.73;;;4.25;;
25359;SDS011;13311;51.386;0.016;2022-12-10T15:57:46;7.00;;;4.97;;
25359;SDS011;13311;51.386;0.016;2022-12-10T16:08:12;20.23;;;11.48;;
25359;SDS011;13311;51.386;0.016;2022-12-10T16:13:20;13.65;;;7.07;;
25359;SDS011;13311;51.386;0.016;2022-12-10T16:18:30;18.70;;;9.35;;
25359;SDS011;13311;51.386;0.016;2022-12-10T16:23:32;42.85;;;26.98;;
25359;SDS011;13311;51.386;0.016;2022-12-10T16:28:33;39.15;;;21.88;;
25359;SDS011;13311;51.386;0.016;2022-12-10T16:33:34;39.17;;;23.25;;
25359;SDS011;13311;51.386;0.016;2022-12-10T16:38:35;30.90;;;17.52;;
25359;SDS011;13311;51.386;0.016;2022-12-10T16:43:35;27.88;;;14.98;;
25359;SDS011;13311;51.386;0.016;2022-12-10T16:48:36;33.83;;;15.20;;
25359;SDS011;13311;51.386;0.016;2022-12-10T16:53:37;28.00;;;14.45;;
25359;SDS011;13311;51.386;0.016;2022-12-10T16:58:38;25.05;;;15.15;;
25359;SDS011;13311;51.386;0.016;2022-12-10T17:03:38;32.60;;;19.67;;
25359;SDS011;13311;51.386;0.016;2022-12-10T17:08:39;40.92;;;27.70;;
25359;SDS011;13311;51.386;0.016;2022-12-10T17:13:40;32.25;;;21.70;;
25359;SDS011;13311;51.386;0.016;2022-12-10T17:18:42;31.88;;;22.98;;
25359;SDS011;13311;51.386;0.016;2022-12-10T17:23:42;31.77;;;20.25;;
25359;SDS011;13311;51.386;0.016;2022-12-10T17:28:44;28.65;;;18.70;;
25359;SDS011;13311;51.386;0.016;2022-12-10T17:33:44;31.25;;;17.70;;
25359;SDS011;13311;51.386;0.016;2022-12-10T17:38:45;32.13;;;19.08;;
25359;SDS011;13311;51.386;0.016;2022-12-10T17:43:46;31.70;;;18.17;;
25359;SDS011;13311;51.386;0.016;2022-12-10T17:48:48;29.27;;;18.65;;
25359;SDS011;13311;51.386;0.016;2022-12-10T17:53:48;35.33;;;19.25;;
25359;SDS011;13311;51.386;0.016;2022-12-10T17:58:50;40.08;;;21.85;;
25359;SDS011;13311;51.386;0.016;2022-12-10T18:03:52;45.20;;;24.70;;
25359;SDS011;13311;51.386;0.016;2022-12-10T18:08:54;37.42;;;21.80;;
25359;SDS011;13311;51.386;0.016;2022-12-10T18:13:57;43.33;;;24.77;;
25359;SDS011;13311;51.386;0.016;2022-12-10T18:19:00;40.92;;;24.17;;
25359;SDS011;13311;51.386;0.016;2022-12-10T18:24:04;38.78;;;24.00;;
25359;SDS011;13311;51.386;0.016;2022-12-10T18:29:05;48.22;;;23.80;;
25359;SDS011;13311;51.386;0.016;2022-12-10T18:34:07;46.15;;;25.35;;
25359;SDS011;13311;51.386;0.016;2022-12-10T18:44:23;47.53;;;23.48;;
25359;SDS011;13311;51.386;0.016;2022-12-10T18:49:26;43.63;;;23.90;;
25359;SDS011;13311;51.386;0.016;2022-12-10T18:54:29;60.75;;;31.40;;
25359;SDS011;13311;51.386;0.016;2022-12-10T18:59:30;61.92;;;33.78;;
25359;SDS011;13311;51.386;0.016;2022-12-10T19:04:31;48.20;;;27.52;;
25359;SDS011;13311;51.386;0.016;2022-12-10T19:09:31;54.47;;;29.90;;
25359;SDS011;13311;51.386;0.016;2022-12-10T19:14:35;47.10;;;27.55;;
25359;SDS011;13311;51.386;0.016;2022-12-10T19:19:35;47.17;;;26.20;;
25359;SDS011;13311;51.386;0.016;2022-12-10T19:24:36;47.17;;;27.10;;
25359;SDS011;13311;51.386;0.016;2022-12-10T19:29:37;52.25;;;27.80;;
25359;SDS011;13311;51.386;0.016;2022-12-10T19:34:40;48.85;;;26.55;;
25359;SDS011;13311;51.386;0.016;2022-12-10T19:39:41;45.92;;;25.73;;
25359;SDS011;13311;51.386;0.016;2022-12-10T19:44:41;40.78;;;23.90;;
25359;SDS011;13311;51.386;0.016;2022-12-10T19:49:42;40.58;;;21.90;;
25359;SDS011;13311;51.386;0.016;2022-12-10T19:54:43;43.10;;;22.48;;
25359;SDS011;13311;51.386;0.016;2022-12-10T19:59:44;43.10;;;25.30;;
25359;SDS011;13311;51.386;0.016;2022-12-10T20:04:44;48.78;;;27.60;;
25359;SDS011;13311;51.386;0.016;2022-12-10T20:09:45;48.53;;;28.63;;
25359;SDS011;13311;51.386;0.016;2022-12-10T20:14:46;42.92;;;26.58;;
25359;SDS011;13311;51.386;0.016;2022-12-10T20:19:46;44.90;;;24.70;;
25359;SDS011;13311;51.386;0.016;2022-12-10T20:24:47;39.13;;;23.58;;
25359;SDS011;13311;51.386;0.016;2022-12-10T20:29:49;41.30;;;23.80;;
25359;SDS011;13311;51.386;0.016;2022-12-10T20:34:49;41.60;;;23.52;;
25359;SDS011;13311;51.386;0.016;2022-12-10T20:39:50;37.40;;;24.60;;
25359;SDS011;13311;51.386;0.016;2022-12-10T20:44:51;45.70;;;29.30;;
25359;SDS011;13311;51.386;0.016;2022-12-10T20:49:52;57.03;;;29.50;;
25359;SDS011;13311;51.386;0.016;2022-12-10T20:54:52;45.33;;;26.77;;
25359;SDS011;13311;51.386;0.016;2022-12-10T20:59:53;36.92;;;22.95;;
25359;SDS011;13311;51.386;0.016;2022-12-10T21:04:53;37.35;;;23.48;;
25359;SDS011;13311;51.386;0.016;2022-12-10T21:09:54;36.42;;;21.50;;
25359;SDS011;13311;51.386;0.016;2022-12-10T21:14:55;29.20;;;17.77;;
25359;SDS011;13311;51.386;0.016;2022-12-10T21:19:56;30.50;;;17.85;;
25359;SDS011;13311;51.386;0.016;2022-12-10T21:24:56;34.78;;;21.08;;
25359;SDS011;13311;51.386;0.016;2022-12-10T21:29:57;40.72;;;22.63;;
25359;SDS011;13311;51.386;0.016;2022-12-10T21:34:58;35.83;;;20.10;;
25359;SDS011;13311;51.386;0.016;2022-12-10T21:39:58;40.80;;;21.67;;
25359;SDS011;13311;51.386;0.016;2022-12-10T21:44:59;39.75;;;20.10;;
25359;SDS011;13311;51.386;0.016;2022-12-10T21:50:00;40.45;;;21.27;;
25359;SDS011;13311;51.386;0.016;2022-12-10T21:55:01;46.13;;;22.80;;
25359;SDS011;13311;51.386;0.016;2022-12-10T22:00:03;38.53;;;21.17;;
25359;SDS011;13311;51.386;0.016;2022-12-10T22:05:06;44.08;;;24.05;;
25359;SDS011;13311;51.386;0.016;2022-12-10T22:10:08;40.45;;;23.83;;
25359;SDS011;13311;51.386;0.016;2022-12-10T22:15:12;39.83;;;21.80;;
25359;SDS011;13311;51.386;0.016;2022-12-10T22:20:13;37.75;;;21.48;;
25359;SDS011;13311;51.386;0.016;2022-12-10T22:25:14;39.28;;;21.73;;
25359;SDS011;13311;51.386;0.016;2022-12-10T22:30:14;38.83;;;21.42;;
25359;SDS011;13311;51.386;0.016;2022-12-10T22:35:15;38.38;;;20.48;;
25359;SDS011;13311;51.386;0.016;2022-12-10T22:40:16;38.53;;;21.45;;
25359;SDS011;13311;51.386;0.016;2022-12-10T22:45:17;36.90;;;21.20;;
25359;SDS011;13311;51.386;0.016;2022-12-10T22:50:18;34.85;;;19.95;;
25359;SDS011;13311;51.386;0.016;2022-12-10T22:55:19;31.77;;;19.67;;
25359;SDS011;13311;51.386;0.016;2022-12-10T23:00:20;32.70;;;19.10;;
25359;SDS011;13311;51.386;0.016;2022-12-10T23:05:22;40.20;;;20.63;;
25359;SDS011;13311;51.386;0.016;2022-12-10T23:10:23;37.83;;;20.20;;
25359;SDS011;13311;51.386;0.016;2022-12-10T23:15:24;39.40;;;20.70;;
25359;SDS011;13311;51.386;0.016;2022-12-10T23:20:25;35.10;;;18.77;;
25359;SDS011;13311;51.386;0.016;2022-12-10T23:25:26;39.67;;;21.00;;
25359;SDS011;13311;51.386;0.016;2022-12-10T23:30:27;40.65;;;21.25;;
25359;SDS011;13311;51.386;0.016;2022-12-10T23:35:27;37.67;;;20.98;;
25359;SDS011;13311;51.386;0.016;2022-12-10T23:40:28;29.92;;;17.75;;
25359;SDS011;13311;51.386;0.016;2022-12-10T23:45:29;30.58;;;17.38;;
25359;SDS011;13311;51.386;0.016;2022-12-10T23:50:30;29.05;;;16.13;;
25359;SDS011;13311;51.386;0.016;2022-12-10T23:55:32;26.40;;;14.02;;
